Norwegian Jewel — C6TX6 — position and weather

sailwx.info

Track history (hours):
 
Tides and Currents Weather Stations Pressure Air Temp Water Temp Dewpoint Dewpoint Depression Visibility Wind Speed Wind Dir Waves Ship Positions

Norwegian Jewel

Last reported at 2018-May-27 13:13 UTC. Time now 2018-May-27 13:57 UTC.
Position N 49°21' W 127°11'.

Type: Ship. MMSI: 311827000.

Date/timePositionNaut miles runAvg speedWind from/ knotsBaromVisibWave heightAir tempDewpointWater temp
2018-May-27 13:13N 49°21' W 127°11'520.0
2018-May-27 12:59N 49°19' W 127°05'919.6
2018-May-27 12:30N 49°13' W 126°54'1019.7
2018-May-27 11:58N 49°07' W 126°40'920.3
2018-May-27 11:30N 49°02' W 126°29'1020.2
2018-May-27 11:00N 48°56' W 126°16'1020.4
2018-May-27 10:30N 48°50' W 126°03'1020.6
2018-May-27 10:00N 48°45' W 125°50'1020.7
2018-May-27 09:30N 48°40' W 125°36'1020.3
2018-May-27 09:00N 48°35' W 125°23'1020.0
2018-May-27 08:29N 48°32' W 125°08'1020.1
2018-May-27 08:00N 48°32' W 124°53'1019.9
2018-May-27 07:30N 48°30' W 124°39'1020.0
2018-May-27 07:00N 48°26' W 124°25'1019.7
2018-May-27 06:30N 48°22' W 124°11'1019.5
2018-May-27 06:00N 48°18' W 123°57'3416.6
2018-May-27 03:57N 48°13' W 123°07'1320.5
2018-May-27 03:20N 48°12' W 122°48'1321.1
2018-May-27 02:42N 48°01' W 122°37'421.9
2018-May-27 02:30N 47°57' W 122°33'1020.0
2018-May-27 02:00N 47°48' W 122°27'1019.6
2018-May-27 01:30N 47°39' W 122°27'4 8.8
2018-May-27 01:00N 47°37' W 122°21'0 0.0
2018-May-27 00:30N 47°37' W 122°21'0 0.0
2018-May-27 00:00N 47°37' W 122°21'0 0.0
2018-May-26 23:30N 47°37' W 122°21'0 0.0
2018-May-26 23:00N 47°37' W 122°21'0 0.0
2018-May-26 22:30N 47°37' W 122°21'0 0.0
2018-May-26 22:00N 47°37' W 122°21'0 0.0
2018-May-26 21:28N 47°37' W 122°21'0 0.0
2018-May-26 21:00N 47°37' W 122°21'0 0.0
2018-May-26 20:30N 47°37' W 122°21'0 0.0
2018-May-26 20:00N 47°37' W 122°21'0 0.0
2018-May-26 19:30N 47°37' W 122°21'0 0.0
2018-May-26 19:00N 47°37' W 122°21'0 0.0
2018-May-26 18:30N 47°37' W 122°21'0 0.0
2018-May-26 18:00N 47°37' W 122°21'0 0.0
2018-May-26 17:30N 47°37' W 122°21'0 0.0
2018-May-26 17:00N 47°37' W 122°21'0 0.0
2018-May-26 16:31N 47°37' W 122°21'0 0.0
2018-May-26 16:00N 47°37' W 122°21'0 0.0
2018-May-26 15:30N 47°37' W 122°21'0 0.0
2018-May-26 15:00N 47°37' W 122°21'0 0.0
2018-May-26 14:31N 47°37' W 122°21'0 0.0
2018-May-26 14:01N 47°37' W 122°21'0 0.0
2018-May-26 13:30N 47°37' W 122°21'0 0.1
2018-May-26 13:00N 47°37' W 122°21'4 7.6
2018-May-26 12:31N 47°37' W 122°26'612.1
2018-May-26 12:01N 47°43' W 122°27'815.4
2018-May-26 11:31N 47°51' W 122°29'714.5
2018-May-26 11:00N 47°57' W 122°35'814.2
2018-May-26 10:25N 48°05' W 122°39'714.5
2018-May-26 09:55N 48°10' W 122°47'816.8
2018-May-26 09:27N 48°11' W 122°58'817.7
2018-May-26 09:00N 48°12' W 123°10'2914.0
2018-May-26 06:56N 48°14' W 123°54'614.8
2018-May-26 06:30N 48°16' W 124°02'1515.1
2018-May-26 05:30N 48°22' W 124°23'917.2
2018-May-26 05:01N 48°26' W 124°35'816.7
2018-May-26 04:31N 48°29' W 124°47'916.9
2018-May-26 03:58N 48°29' W 125°00'816.6
2018-May-26 03:30N 48°29' W 125°12'916.8
2018-May-26 02:59N 48°33' W 125°23'817.3
2018-May-26 02:30N 48°37' W 125°34'917.1
2018-May-26 02:00N 48°42' W 125°45'817.0
2018-May-26 01:31N 48°47' W 125°55'917.2
2018-May-26 01:00N 48°52' W 126°06'917.4
2018-May-26 00:31N 48°57' W 126°17'917.3
2018-May-26 00:00N 49°02' W 126°28'917.2
2018-May-25 23:30N 49°06' W 126°39'917.2
2018-May-25 23:00N 49°11' W 126°50'917.7
2018-May-25 22:29N 49°17' W 127°01'29119.2
2018-May-25 07:18N 53°26' W 131°00'620.4
2018-May-25 07:00N 53°32' W 131°01'1020.4
2018-May-25 06:30N 53°42' W 131°02'1020.4
2018-May-25 06:00N 53°52' W 131°03'1020.4
2018-May-25 05:30N 54°03' W 131°04'1020.7
2018-May-25 05:00N 54°13' W 131°04'1121.3
2018-May-25 04:30N 54°23' W 131°09'1020.7
2018-May-25 04:00N 54°33' W 131°15'1019.0
2018-May-25 03:29N 54°43' W 131°12'1019.7
2018-May-25 02:58N 54°53' W 131°07'243 6.6
2018-May-23 14:19N 58°08' W 135°28'0 0.4
2018-May-23 13:59N 58°08' W 135°28'4 7.3
2018-May-23 13:27N 58°09' W 135°21'  
2018-May-21 02:33N 58°10' W 135°18'1 8.0
2018-May-21 02:26N 58°10' W 135°19'4 7.8
2018-May-21 01:59N 58°12' W 135°25'4 7.6
2018-May-21 01:29N 58°14' W 135°31'4 7.6
2018-May-21 01:00N 58°16' W 135°37'4 8.0
2018-May-21 00:30N 58°17' W 135°44'4 8.4
2018-May-21 00:00N 58°19' W 135°52'4 7.9
2018-May-20 23:30N 58°21' W 135°57'4 8.4
2018-May-20 23:00N 58°25' W 135°60'611.1
2018-May-20 22:30N 58°30' W 136°04'814.9
2018-May-20 22:00N 58°38' W 136°03'714.7
2018-May-20 21:30N 58°43' W 136°12'917.6
2018-May-20 20:59N 58°48' W 136°27'5 0.9
2018-May-20 15:55N 58°51' W 136°34'918.7
2018-May-20 15:26N 58°46' W 136°20'818.7
2018-May-20 15:00N 58°40' W 136°10'917.9
2018-May-20 14:30N 58°31' W 136°04'714.5
2018-May-20 14:00N 58°25' W 135°57'612.5
2018-May-20 13:30N 58°20' W 136°04'610.6
2018-May-20 12:58N 58°18' W 136°14'2410.5
2018-May-20 10:39N 58°04' W 136°51'  
Track history (hours):
 
Tides and Currents Weather Stations Pressure Air Temp Water Temp Dewpoint Dewpoint Depression Visibility Wind Speed Wind Dir Waves Ship Positions

Norwegian Jewel

Last reported at 2018-May-27 13:13 UTC. Time now 2018-May-27 13:57 UTC.
Position N 49°21' W 127°11'.

Type: Ship. MMSI: 311827000.

Date/timePositionNaut miles runAvg speedWind from/ knotsBaromVisibWave heightAir tempDewpointWater temp
2018-May-27 13:13N 49°21' W 127°11'520.0
2018-May-27 12:59N 49°19' W 127°05'919.6
2018-May-27 12:30N 49°13' W 126°54'1019.7
2018-May-27 11:58N 49°07' W 126°40'920.3
2018-May-27 11:30N 49°02' W 126°29'1020.2
2018-May-27 11:00N 48°56' W 126°16'1020.4
2018-May-27 10:30N 48°50' W 126°03'1020.6
2018-May-27 10:00N 48°45' W 125°50'1020.7
2018-May-27 09:30N 48°40' W 125°36'1020.3
2018-May-27 09:00N 48°35' W 125°23'1020.0
2018-May-27 08:29N 48°32' W 125°08'1020.1
2018-May-27 08:00N 48°32' W 124°53'1019.9
2018-May-27 07:30N 48°30' W 124°39'1020.0
2018-May-27 07:00N 48°26' W 124°25'1019.7
2018-May-27 06:30N 48°22' W 124°11'1019.5
2018-May-27 06:00N 48°18' W 123°57'3416.6
2018-May-27 03:57N 48°13' W 123°07'1320.5
2018-May-27 03:20N 48°12' W 122°48'1321.1
2018-May-27 02:42N 48°01' W 122°37'421.9
2018-May-27 02:30N 47°57' W 122°33'1020.0
2018-May-27 02:00N 47°48' W 122°27'1019.6
2018-May-27 01:30N 47°39' W 122°27'4 8.8
2018-May-27 01:00N 47°37' W 122°21'0 0.0
2018-May-27 00:30N 47°37' W 122°21'0 0.0
2018-May-27 00:00N 47°37' W 122°21'0 0.0
2018-May-26 23:30N 47°37' W 122°21'0 0.0
2018-May-26 23:00N 47°37' W 122°21'0 0.0
2018-May-26 22:30N 47°37' W 122°21'0 0.0
2018-May-26 22:00N 47°37' W 122°21'0 0.0
2018-May-26 21:28N 47°37' W 122°21'0 0.0
2018-May-26 21:00N 47°37' W 122°21'0 0.0
2018-May-26 20:30N 47°37' W 122°21'0 0.0
2018-May-26 20:00N 47°37' W 122°21'0 0.0
2018-May-26 19:30N 47°37' W 122°21'0 0.0
2018-May-26 19:00N 47°37' W 122°21'0 0.0
2018-May-26 18:30N 47°37' W 122°21'0 0.0
2018-May-26 18:00N 47°37' W 122°21'0 0.0
2018-May-26 17:30N 47°37' W 122°21'0 0.0
2018-May-26 17:00N 47°37' W 122°21'0 0.0
2018-May-26 16:31N 47°37' W 122°21'0 0.0
2018-May-26 16:00N 47°37' W 122°21'0 0.0
2018-May-26 15:30N 47°37' W 122°21'0 0.0
2018-May-26 15:00N 47°37' W 122°21'0 0.0
2018-May-26 14:31N 47°37' W 122°21'0 0.0
2018-May-26 14:01N 47°37' W 122°21'0 0.0
2018-May-26 13:30N 47°37' W 122°21'0 0.1
2018-May-26 13:00N 47°37' W 122°21'4 7.6
2018-May-26 12:31N 47°37' W 122°26'612.1
2018-May-26 12:01N 47°43' W 122°27'815.4
2018-May-26 11:31N 47°51' W 122°29'714.5
2018-May-26 11:00N 47°57' W 122°35'814.2
2018-May-26 10:25N 48°05' W 122°39'714.5
2018-May-26 09:55N 48°10' W 122°47'816.8
2018-May-26 09:27N 48°11' W 122°58'817.7
2018-May-26 09:00N 48°12' W 123°10'2914.0
2018-May-26 06:56N 48°14' W 123°54'614.8
2018-May-26 06:30N 48°16' W 124°02'1515.1
2018-May-26 05:30N 48°22' W 124°23'917.2
2018-May-26 05:01N 48°26' W 124°35'816.7
2018-May-26 04:31N 48°29' W 124°47'916.9
2018-May-26 03:58N 48°29' W 125°00'816.6
2018-May-26 03:30N 48°29' W 125°12'916.8
2018-May-26 02:59N 48°33' W 125°23'817.3
2018-May-26 02:30N 48°37' W 125°34'917.1
2018-May-26 02:00N 48°42' W 125°45'817.0
2018-May-26 01:31N 48°47' W 125°55'917.2
2018-May-26 01:00N 48°52' W 126°06'917.4
2018-May-26 00:31N 48°57' W 126°17'917.3
2018-May-26 00:00N 49°02' W 126°28'917.2
2018-May-25 23:30N 49°06' W 126°39'917.2
2018-May-25 23:00N 49°11' W 126°50'917.7
2018-May-25 22:29N 49°17' W 127°01'29119.2
2018-May-25 07:18N 53°26' W 131°00'620.4
2018-May-25 07:00N 53°32' W 131°01'1020.4
2018-May-25 06:30N 53°42' W 131°02'1020.4
2018-May-25 06:00N 53°52' W 131°03'1020.4
2018-May-25 05:30N 54°03' W 131°04'1020.7
2018-May-25 05:00N 54°13' W 131°04'1121.3
2018-May-25 04:30N 54°23' W 131°09'1020.7
2018-May-25 04:00N 54°33' W 131°15'1019.0
2018-May-25 03:29N 54°43' W 131°12'1019.7
2018-May-25 02:58N 54°53' W 131°07'243 6.6
2018-May-23 14:19N 58°08' W 135°28'0 0.4
2018-May-23 13:59N 58°08' W 135°28'4 7.3
2018-May-23 13:27N 58°09' W 135°21'  
2018-May-21 02:33N 58°10' W 135°18'1 8.0
2018-May-21 02:26N 58°10' W 135°19'4 7.8
2018-May-21 01:59N 58°12' W 135°25'4 7.6
2018-May-21 01:29N 58°14' W 135°31'4 7.6
2018-May-21 01:00N 58°16' W 135°37'4 8.0
2018-May-21 00:30N 58°17' W 135°44'4 8.4
2018-May-21 00:00N 58°19' W 135°52'4 7.9
2018-May-20 23:30N 58°21' W 135°57'4 8.4
2018-May-20 23:00N 58°25' W 135°60'611.1
2018-May-20 22:30N 58°30' W 136°04'814.9
2018-May-20 22:00N 58°38' W 136°03'714.7
2018-May-20 21:30N 58°43' W 136°12'917.6
2018-May-20 20:59N 58°48' W 136°27'5 0.9
2018-May-20 15:55N 58°51' W 136°34'918.7
2018-May-20 15:26N 58°46' W 136°20'818.7
2018-May-20 15:00N 58°40' W 136°10'917.9
2018-May-20 14:30N 58°31' W 136°04'714.5
2018-May-20 14:00N 58°25' W 135°57'612.5
2018-May-20 13:30N 58°20' W 136°04'610.6
2018-May-20 12:58N 58°18' W 136°14'2410.5
2018-May-20 10:39N 58°04' W 136°51'  

Dump ship's entire track history